createdAt,value
2022-09-18T00:01:08.110Z,11.73
2022-09-18T00:03:34.529Z,11.72
2022-09-18T00:06:07.420Z,11.71
2022-09-18T00:08:33.848Z,11.73
2022-09-18T00:11:04.470Z,11.76
2022-09-18T00:13:31.097Z,11.76
2022-09-18T00:15:57.732Z,11.77
2022-09-18T00:18:24.231Z,11.78
2022-09-18T00:20:50.659Z,11.72
2022-09-18T00:23:17.095Z,11.69
2022-09-18T00:25:43.500Z,11.71
2022-09-18T00:28:09.917Z,11.70
2022-09-18T00:30:36.380Z,11.70
2022-09-18T00:33:02.869Z,11.71
2022-09-18T00:35:29.331Z,11.69
2022-09-18T00:37:55.791Z,11.68
2022-09-18T00:40:22.263Z,11.66
2022-09-18T00:42:48.734Z,11.63
2022-09-18T00:45:15.183Z,11.60
2022-09-18T00:47:46.283Z,11.55
2022-09-18T00:50:17.964Z,11.54
2022-09-18T00:52:57.949Z,11.52
2022-09-18T00:55:31.006Z,11.51
2022-09-18T00:58:00.509Z,11.53
2022-09-18T01:00:27.959Z,11.58
2022-09-18T01:02:54.391Z,11.54
2022-09-18T01:05:40.766Z,11.53
2022-09-18T01:08:18.476Z,11.49
2022-09-18T01:11:00.103Z,11.46
2022-09-18T01:14:05.384Z,11.43
2022-09-18T01:16:40.786Z,11.39
2022-09-18T01:19:33.452Z,11.40
2022-09-18T01:22:37.294Z,11.40
2022-09-18T01:25:03.657Z,11.34
2022-09-18T01:27:51.753Z,11.33
2022-09-18T01:30:18.391Z,11.32
2022-09-18T01:32:57.093Z,11.30
2022-09-18T01:35:52.849Z,11.31
2022-09-18T01:38:25.427Z,11.29
2022-09-18T01:41:10.149Z,11.30
2022-09-18T01:43:39.175Z,11.32
2022-09-18T01:46:14.405Z,11.33
2022-09-18T01:49:00.864Z,11.32
2022-09-18T01:51:35.223Z,11.33
2022-09-18T01:54:11.056Z,11.30
2022-09-18T01:56:42.222Z,11.30
2022-09-18T01:59:15.528Z,11.30
2022-09-18T02:01:44.375Z,11.31
2022-09-18T02:04:17.362Z,11.29
2022-09-18T02:06:51.947Z,11.28
2022-09-18T02:09:18.458Z,11.30
2022-09-18T02:11:50.738Z,11.32
2022-09-18T02:14:25.793Z,11.32
2022-09-18T02:16:57.680Z,11.36
2022-09-18T02:19:42.673Z,11.35
2022-09-18T02:22:12.436Z,11.43
2022-09-18T02:24:42.727Z,11.52
2022-09-18T02:27:11.933Z,11.53
2022-09-18T02:29:40.352Z,11.46
2022-09-18T02:32:06.808Z,11.43
2022-09-18T02:34:33.805Z,11.42
2022-09-18T02:37:15.305Z,11.41
2022-09-18T02:40:07.819Z,11.39
2022-09-18T02:43:09.430Z,11.39
2022-09-18T02:46:00.542Z,11.40
2022-09-18T02:49:17.297Z,11.40
2022-09-18T02:51:51.129Z,11.40
2022-09-18T02:54:29.634Z,11.43
2022-09-18T02:57:01.948Z,11.44
2022-09-18T02:59:43.916Z,11.43
2022-09-18T03:02:10.786Z,11.39
2022-09-18T03:04:37.513Z,11.40
2022-09-18T03:07:04.407Z,11.33
2022-09-18T03:09:32.311Z,11.33
2022-09-18T03:11:58.729Z,11.34
2022-09-18T03:14:25.142Z,11.30
2022-09-18T03:16:51.538Z,11.29
2022-09-18T03:19:17.981Z,11.26
2022-09-18T03:21:44.629Z,11.25
2022-09-18T03:24:11.124Z,11.21
2022-09-18T03:26:38.193Z,11.22
2022-09-18T03:29:09.013Z,11.21
2022-09-18T03:31:36.010Z,11.20
2022-09-18T03:34:02.714Z,11.15
2022-09-18T03:36:29.166Z,11.13
2022-09-18T03:38:55.684Z,11.15
2022-09-18T03:41:22.825Z,11.17
2022-09-18T03:43:49.864Z,11.17
2022-09-18T03:46:22.359Z,11.21
2022-09-18T03:48:52.659Z,11.17
2022-09-18T03:51:19.965Z,11.16
2022-09-18T03:53:47.764Z,11.15
2022-09-18T03:56:15.323Z,11.15
2022-09-18T03:58:41.946Z,11.13
2022-09-18T04:01:08.925Z,11.13
2022-09-18T04:03:35.631Z,11.13
2022-09-18T04:06:02.710Z,11.14
2022-09-18T04:08:29.170Z,11.14
2022-09-18T04:10:55.614Z,11.15
2022-09-18T04:13:22.104Z,11.15
2022-09-18T04:15:50.420Z,11.14
2022-09-18T04:18:18.109Z,11.19
2022-09-18T04:20:45.178Z,11.18
2022-09-18T04:23:14.298Z,11.17
2022-09-18T04:25:44.223Z,11.19
2022-09-18T04:28:11.267Z,11.21
2022-09-18T04:30:38.137Z,11.21
2022-09-18T04:33:05.277Z,11.21
2022-09-18T04:35:31.762Z,11.23
2022-09-18T04:37:58.181Z,11.25
2022-09-18T04:40:24.871Z,11.24
2022-09-18T04:42:51.422Z,11.27
2022-09-18T04:45:17.891Z,11.28
2022-09-18T04:47:46.944Z,11.33
2022-09-18T04:50:13.502Z,11.32
2022-09-18T04:52:40.049Z,11.29
2022-09-18T04:55:06.876Z,11.28
2022-09-18T04:57:33.308Z,11.25
2022-09-18T04:59:59.726Z,11.21
2022-09-18T05:02:26.366Z,11.20
2022-09-18T05:04:52.857Z,11.21
2022-09-18T05:07:19.375Z,11.18
2022-09-18T05:09:45.850Z,11.16
2022-09-18T05:12:12.314Z,11.14
2022-09-18T05:14:39.066Z,11.13
2022-09-18T05:17:05.917Z,11.13
2022-09-18T05:19:32.393Z,11.13
2022-09-18T05:21:58.830Z,11.09
2022-09-18T05:24:25.254Z,11.07
2022-09-18T05:26:51.643Z,11.04
2022-09-18T05:29:18.133Z,11.02
2022-09-18T05:31:44.653Z,11.00
2022-09-18T05:34:11.165Z,10.99
2022-09-18T05:36:37.578Z,10.98
2022-09-18T05:39:04.233Z,10.99
2022-09-18T05:41:30.974Z,10.98
2022-09-18T05:43:57.461Z,10.98
2022-09-18T05:46:23.872Z,10.98
2022-09-18T05:48:51.044Z,11.02
2022-09-18T05:51:17.503Z,11.03
2022-09-18T05:53:48.357Z,11.06
2022-09-18T05:56:17.966Z,11.07
2022-09-18T05:58:44.408Z,11.03
2022-09-18T06:01:11.121Z,11.10
2022-09-18T06:03:37.624Z,11.09
2022-09-18T06:06:04.327Z,11.12
2022-09-18T06:08:30.775Z,11.18
2022-09-18T06:11:00.543Z,11.22
2022-09-18T06:13:26.983Z,11.23
2022-09-18T06:15:53.607Z,11.27
2022-09-18T06:18:20.078Z,11.40
2022-09-18T06:20:55.318Z,11.46
2022-09-18T06:23:26.303Z,11.52
2022-09-18T06:26:00.235Z,11.60
2022-09-18T06:28:27.957Z,11.59
2022-09-18T06:30:54.405Z,11.63
2022-09-18T06:33:20.834Z,11.64
2022-09-18T06:35:49.132Z,11.68
2022-09-18T06:38:16.410Z,11.70
2022-09-18T06:40:52.903Z,11.70
2022-09-18T06:43:20.218Z,11.67
2022-09-18T06:45:55.222Z,11.62
2022-09-18T06:48:22.929Z,11.60
2022-09-18T06:50:57.153Z,11.61
2022-09-18T06:53:24.310Z,11.62
2022-09-18T06:55:50.832Z,11.61
2022-09-18T06:58:19.352Z,11.65
2022-09-18T07:00:46.282Z,11.67
2022-09-18T07:03:12.928Z,11.70
2022-09-18T07:05:42.888Z,11.73
2022-09-18T07:08:09.967Z,11.78
2022-09-18T07:10:36.722Z,11.79
2022-09-18T07:13:03.490Z,11.88
2022-09-18T07:15:30.692Z,11.92
2022-09-18T07:18:01.694Z,11.87
2022-09-18T07:20:29.523Z,11.85
2022-09-18T07:23:00.734Z,11.87
2022-09-18T07:25:29.419Z,11.94
2022-09-18T07:27:55.978Z,11.99
2022-09-18T07:30:22.515Z,12.01
2022-09-18T07:32:49.148Z,12.04
2022-09-18T07:35:15.666Z,12.06
2022-09-18T07:37:42.134Z,12.12
2022-09-18T07:40:09.679Z,12.14
2022-09-18T07:42:36.523Z,12.16
2022-09-18T07:45:03.756Z,12.24
2022-09-18T07:47:30.206Z,12.31
2022-09-18T07:49:56.756Z,12.39
2022-09-18T07:52:23.268Z,12.44
2022-09-18T07:54:49.827Z,12.50
2022-09-18T07:57:16.378Z,12.52
2022-09-18T07:59:43.010Z,12.57
2022-09-18T08:02:11.378Z,12.61
2022-09-18T08:04:38.005Z,12.65
2022-09-18T08:07:04.555Z,12.69
2022-09-18T08:09:31.020Z,12.77
2022-09-18T08:11:57.477Z,12.84
2022-09-18T08:14:28.598Z,12.89
2022-09-18T08:16:56.028Z,12.88
2022-09-18T08:19:22.546Z,12.97
2022-09-18T08:21:49.322Z,12.96
2022-09-18T08:24:17.379Z,12.94
2022-09-18T08:26:44.327Z,12.91
2022-09-18T08:29:10.780Z,12.92
2022-09-18T08:31:37.325Z,12.97
2022-09-18T08:34:03.845Z,13.01
2022-09-18T08:36:30.307Z,13.02
2022-09-18T08:38:57.174Z,12.94
2022-09-18T08:41:31.018Z,12.85
2022-09-18T08:44:07.656Z,12.84
2022-09-18T08:46:41.726Z,12.81
2022-09-18T08:49:25.813Z,12.85
2022-09-18T08:52:09.907Z,12.88
2022-09-18T08:55:08.837Z,12.91
2022-09-18T08:57:41.847Z,12.91
2022-09-18T09:00:23.620Z,12.89
2022-09-18T09:02:53.715Z,12.92
2022-09-18T09:05:31.060Z,12.92
2022-09-18T09:08:31.169Z,12.85
2022-09-18T09:11:25.697Z,12.85
2022-09-18T09:14:34.226Z,12.87
2022-09-18T09:17:46.838Z,12.93
2022-09-18T09:20:22.656Z,12.94
2022-09-18T09:23:05.650Z,12.94
2022-09-18T09:25:50.440Z,12.90
2022-09-18T09:28:24.093Z,12.96
2022-09-18T09:30:56.870Z,12.98
2022-09-18T09:33:34.450Z,12.99
2022-09-18T09:36:07.002Z,13.00
2022-09-18T09:38:42.336Z,13.01
2022-09-18T09:41:34.848Z,13.01
2022-09-18T09:44:05.078Z,12.95
2022-09-18T09:46:58.123Z,13.03
2022-09-18T09:49:28.694Z,13.17
2022-09-18T09:51:58.234Z,13.22
2022-09-18T09:54:24.861Z,13.16
2022-09-18T09:57:09.863Z,13.07
2022-09-18T09:59:56.369Z,13.11
2022-09-18T10:02:44.751Z,13.09
2022-09-18T10:05:23.731Z,13.09
2022-09-18T10:07:56.568Z,13.06
2022-09-18T10:10:49.334Z,13.05
2022-09-18T10:13:23.362Z,13.14
2022-09-18T10:15:55.841Z,13.24
2022-09-18T10:18:25.925Z,13.23
2022-09-18T10:20:58.356Z,13.22
2022-09-18T10:23:48.237Z,13.23
2022-09-18T10:26:23.398Z,13.17
2022-09-18T10:28:49.895Z,13.17
2022-09-18T10:31:18.084Z,13.19
2022-09-18T10:33:51.140Z,13.28
2022-09-18T10:36:33.029Z,13.38
2022-09-18T10:39:00.022Z,13.40
2022-09-18T10:41:30.084Z,13.38
2022-09-18T10:44:14.808Z,13.37
2022-09-18T10:46:52.657Z,13.43
2022-09-18T10:49:32.076Z,13.48
2022-09-18T10:52:28.506Z,13.53
2022-09-18T10:54:59.415Z,13.52
2022-09-18T10:57:33.209Z,13.43
2022-09-18T11:00:00.310Z,13.46
2022-09-18T11:02:33.248Z,13.47
2022-09-18T11:05:03.101Z,13.41
2022-09-18T11:07:30.060Z,13.39
2022-09-18T11:09:56.695Z,13.39
2022-09-18T11:12:27.311Z,13.39
2022-09-18T11:15:06.240Z,13.33
2022-09-18T11:17:40.484Z,13.27
2022-09-18T11:20:07.779Z,13.28
2022-09-18T11:22:40.258Z,13.23
2022-09-18T11:25:23.735Z,13.25
2022-09-18T11:27:52.484Z,13.26
2022-09-18T11:30:29.645Z,13.23
2022-09-18T11:33:00.650Z,13.22
2022-09-18T11:35:29.993Z,13.22
2022-09-18T11:38:00.914Z,13.15
2022-09-18T11:40:30.035Z,13.18
2022-09-18T11:42:57.059Z,13.13
2022-09-18T11:45:42.194Z,13.17
2022-09-18T11:48:23.917Z,13.16
2022-09-18T11:50:55.562Z,13.08
2022-09-18T11:53:26.249Z,13.02
2022-09-18T11:56:25.377Z,13.07
2022-09-18T11:59:01.878Z,13.12
2022-09-18T12:01:44.243Z,13.08
2022-09-18T12:04:17.439Z,13.00
2022-09-18T12:06:51.673Z,12.98
2022-09-18T12:09:31.942Z,13.00
2022-09-18T12:12:13.261Z,12.98
2022-09-18T12:15:09.129Z,13.04
2022-09-18T12:17:42.590Z,13.02
2022-09-18T12:20:34.981Z,12.99
2022-09-18T12:23:01.933Z,12.97
2022-09-18T12:25:44.603Z,12.99
2022-09-18T12:28:22.952Z,12.97
2022-09-18T12:31:13.541Z,12.88
2022-09-18T12:34:08.451Z,12.84
2022-09-18T12:37:07.186Z,12.76
2022-09-18T12:40:05.321Z,12.78
2022-09-18T12:42:59.677Z,12.78
2022-09-18T12:46:00.443Z,12.75
2022-09-18T12:48:46.752Z,12.74
2022-09-18T12:51:25.262Z,12.81
2022-09-18T12:54:20.821Z,12.81
2022-09-18T12:57:25.754Z,12.78
2022-09-18T12:59:59.820Z,12.78
2022-09-18T13:02:37.011Z,12.79
2022-09-18T13:05:18.376Z,12.79
2022-09-18T13:07:58.078Z,12.79
2022-09-18T13:10:29.353Z,12.75
2022-09-18T13:13:05.485Z,12.76
2022-09-18T13:15:42.013Z,12.79
2022-09-18T13:18:32.386Z,12.70
2022-09-18T13:21:02.940Z,12.68
2022-09-18T13:23:34.938Z,12.68
2022-09-18T13:26:04.631Z,12.64
2022-09-18T13:28:31.363Z,12.61
2022-09-18T13:31:23.853Z,12.58
2022-09-18T13:34:06.760Z,12.51
2022-09-18T13:36:35.577Z,12.43
2022-09-18T13:39:06.318Z,12.38
2022-09-18T13:41:45.326Z,12.38
2022-09-18T13:44:34.760Z,12.36
2022-09-18T13:47:15.353Z,12.35
2022-09-18T13:49:49.543Z,12.35
2022-09-18T13:52:41.813Z,12.35
2022-09-18T13:55:11.321Z,12.32
2022-09-18T13:57:38.162Z,12.38
2022-09-18T14:00:20.117Z,12.40
2022-09-18T14:02:48.331Z,12.47
2022-09-18T14:05:38.489Z,12.50
2022-09-18T14:08:07.802Z,12.47
2022-09-18T14:10:51.285Z,12.46
2022-09-18T14:13:40.179Z,12.47
2022-09-18T14:16:09.034Z,12.48
2022-09-18T14:18:44.705Z,12.44
2022-09-18T14:21:17.096Z,12.26
2022-09-18T14:23:46.436Z,12.31
2022-09-18T14:26:32.023Z,12.36
2022-09-18T14:29:10.451Z,12.34
2022-09-18T14:31:50.111Z,12.32
2022-09-18T14:34:43.675Z,12.41
2022-09-18T14:37:28.645Z,12.48
2022-09-18T14:39:56.366Z,12.40
2022-09-18T14:42:32.838Z,12.33
2022-09-18T14:45:12.106Z,12.31
2022-09-18T14:47:46.536Z,12.37
2022-09-18T14:50:24.270Z,12.46
2022-09-18T14:52:50.956Z,12.49
2022-09-18T14:55:23.394Z,12.49
2022-09-18T14:57:54.766Z,12.45
2022-09-18T15:00:25.521Z,12.36
2022-09-18T15:02:56.458Z,12.36
2022-09-18T15:05:23.420Z,12.35
2022-09-18T15:07:53.360Z,12.40
2022-09-18T15:10:19.907Z,12.38
2022-09-18T15:12:46.542Z,12.40
2022-09-18T15:15:30.735Z,12.36
2022-09-18T15:17:57.509Z,12.38
2022-09-18T15:20:26.307Z,12.19
2022-09-18T15:22:53.455Z,12.21
2022-09-18T15:25:30.793Z,12.26
2022-09-18T15:28:01.366Z,12.18
2022-09-18T15:30:28.042Z,12.11
2022-09-18T15:32:57.430Z,11.98
2022-09-18T15:35:28.385Z,11.88
2022-09-18T15:38:02.898Z,11.86
2022-09-18T15:40:34.641Z,11.84
2022-09-18T15:43:04.023Z,11.84
2022-09-18T15:45:33.056Z,11.81
2022-09-18T15:48:21.440Z,11.73
2022-09-18T15:50:48.358Z,11.71
2022-09-18T15:53:19.743Z,11.68
2022-09-18T15:55:56.564Z,11.62
2022-09-18T15:58:26.392Z,11.64
2022-09-18T16:01:00.644Z,11.73
2022-09-18T16:03:29.998Z,11.64
2022-09-18T16:06:00.774Z,11.63
2022-09-18T16:08:30.658Z,11.66
2022-09-18T16:10:59.650Z,11.64
2022-09-18T16:13:26.010Z,11.59
2022-09-18T16:16:07.716Z,11.64
2022-09-18T16:18:35.020Z,11.60
2022-09-18T16:21:04.531Z,11.57
2022-09-18T16:23:50.674Z,11.61
2022-09-18T16:26:20.161Z,11.62
2022-09-18T16:28:50.193Z,11.58
2022-09-18T16:31:21.010Z,11.53
2022-09-18T16:33:48.597Z,11.50
2022-09-18T16:36:27.454Z,11.52
2022-09-18T16:38:55.592Z,11.54
2022-09-18T16:41:22.454Z,11.55
2022-09-18T16:43:49.030Z,11.52
2022-09-18T16:46:17.080Z,11.52
2022-09-18T16:48:44.084Z,11.56
2022-09-18T16:51:10.560Z,11.56
2022-09-18T16:53:38.242Z,11.54
2022-09-18T16:56:12.232Z,11.51
2022-09-18T16:58:40.564Z,11.47
2022-09-18T17:01:07.194Z,11.37
2022-09-18T17:03:33.853Z,11.34
2022-09-18T17:06:02.053Z,11.34
2022-09-18T17:08:30.281Z,11.39
2022-09-18T17:10:57.042Z,11.34
2022-09-18T17:13:23.545Z,11.26
2022-09-18T17:15:50.128Z,11.19
2022-09-18T17:18:16.908Z,11.17
2022-09-18T17:20:43.453Z,11.11
2022-09-18T17:23:09.907Z,11.08
2022-09-18T17:25:36.843Z,11.00
2022-09-18T17:28:03.419Z,11.01
2022-09-18T17:30:29.841Z,10.97
2022-09-18T17:32:56.272Z,10.94
2022-09-18T17:35:22.710Z,10.91
2022-09-18T17:37:51.664Z,10.88
2022-09-18T17:40:21.468Z,10.82
2022-09-18T17:42:48.054Z,10.78
2022-09-18T17:45:14.848Z,10.77
2022-09-18T17:47:41.397Z,10.69
2022-09-18T17:50:08.444Z,10.66
2022-09-18T17:52:35.955Z,10.61
2022-09-18T17:55:03.218Z,10.55
2022-09-18T17:57:31.094Z,10.50
2022-09-18T17:59:57.929Z,10.46
2022-09-18T18:02:25.135Z,10.47
2022-09-18T18:04:51.621Z,10.44
2022-09-18T18:07:18.114Z,10.45
2022-09-18T18:09:44.586Z,10.39
2022-09-18T18:12:11.057Z,10.33
2022-09-18T18:14:37.689Z,10.28
2022-09-18T18:17:04.328Z,10.25
2022-09-18T18:19:30.850Z,10.23
2022-09-18T18:21:57.360Z,10.21
2022-09-18T18:24:23.889Z,10.18
2022-09-18T18:26:50.679Z,10.19
2022-09-18T18:29:19.645Z,10.18
2022-09-18T18:31:49.135Z,10.20
2022-09-18T18:34:20.994Z,10.19
2022-09-18T18:36:50.008Z,10.18
2022-09-18T18:39:16.912Z,10.14
2022-09-18T18:41:45.547Z,10.09
2022-09-18T18:44:13.214Z,10.06
2022-09-18T18:46:39.933Z,10.03
2022-09-18T18:49:09.807Z,9.97
2022-09-18T18:51:47.328Z,9.94
2022-09-18T18:54:20.006Z,9.92
2022-09-18T18:56:47.074Z,9.92
2022-09-18T18:59:18.313Z,9.91
2022-09-18T19:01:45.510Z,9.87
2022-09-18T19:04:14.556Z,9.86
2022-09-18T19:06:43.500Z,9.85
2022-09-18T19:09:11.613Z,9.86
2022-09-18T19:11:43.123Z,9.88
2022-09-18T19:14:16.958Z,9.88
2022-09-18T19:16:45.390Z,9.85
2022-09-18T19:19:13.521Z,9.85
2022-09-18T19:21:40.371Z,9.87
2022-09-18T19:24:08.773Z,9.84
2022-09-18T19:26:36.493Z,9.85
2022-09-18T19:29:06.841Z,9.90
2022-09-18T19:31:36.534Z,9.88
2022-09-18T19:34:03.593Z,9.84
2022-09-18T19:36:31.406Z,9.83
2022-09-18T19:39:01.115Z,9.81
2022-09-18T19:41:38.896Z,9.83
2022-09-18T19:44:29.089Z,9.83
2022-09-18T19:46:59.038Z,9.81
2022-09-18T19:49:32.499Z,9.86
2022-09-18T19:51:58.992Z,9.84
2022-09-18T19:54:25.422Z,9.77
2022-09-18T19:56:52.153Z,9.74
2022-09-18T19:59:18.966Z,9.68
2022-09-18T20:01:45.623Z,9.73
2022-09-18T20:04:12.126Z,9.74
2022-09-18T20:06:40.443Z,9.72
2022-09-18T20:09:07.263Z,9.75
2022-09-18T20:11:33.726Z,9.79
2022-09-18T20:14:00.218Z,9.74
2022-09-18T20:16:26.991Z,9.71
2022-09-18T20:18:54.558Z,9.71
2022-09-18T20:21:21.107Z,9.71
2022-09-18T20:23:48.297Z,9.65
2022-09-18T20:26:17.212Z,9.67
2022-09-18T20:28:44.766Z,9.66
2022-09-18T20:31:14.163Z,9.69
2022-09-18T20:33:41.067Z,9.74
2022-09-18T20:36:09.526Z,9.80
2022-09-18T20:38:39.973Z,9.74
2022-09-18T20:41:10.930Z,9.70
2022-09-18T20:43:39.684Z,9.72
2022-09-18T20:46:08.289Z,9.70
2022-09-18T20:48:36.656Z,9.65
2022-09-18T20:51:09.025Z,9.62
2022-09-18T20:53:38.238Z,9.64
2022-09-18T20:56:09.530Z,9.60
2022-09-18T20:58:37.442Z,9.68
2022-09-18T21:01:08.327Z,9.67
2022-09-18T21:03:35.698Z,9.70
2022-09-18T21:06:21.976Z,9.71
2022-09-18T21:08:53.102Z,9.71
2022-09-18T21:11:23.503Z,9.69
2022-09-18T21:13:55.830Z,9.64
2022-09-18T21:16:25.890Z,9.64
2022-09-18T21:18:56.615Z,9.59
2022-09-18T21:21:24.255Z,9.57
2022-09-18T21:23:53.603Z,9.48
2022-09-18T21:26:21.218Z,9.52
2022-09-18T21:28:52.197Z,9.48
2022-09-18T21:31:19.492Z,9.50
2022-09-18T21:33:46.446Z,9.50
2022-09-18T21:36:13.076Z,9.56
2022-09-18T21:38:41.001Z,9.54
2022-09-18T21:41:13.202Z,9.51
2022-09-18T21:43:40.549Z,9.42
2022-09-18T21:46:11.297Z,9.42
2022-09-18T21:48:40.354Z,9.40
2022-09-18T21:51:10.205Z,9.36
2022-09-18T21:53:39.478Z,9.34
2022-09-18T21:56:09.686Z,9.38
2022-09-18T21:58:40.556Z,9.30
2022-09-18T22:01:15.667Z,9.31
2022-09-18T22:03:46.866Z,9.38
2022-09-18T22:06:13.357Z,9.41
2022-09-18T22:08:41.158Z,9.40
2022-09-18T22:11:08.043Z,9.47
2022-09-18T22:13:34.485Z,9.48
2022-09-18T22:16:01.535Z,9.45
2022-09-18T22:18:28.620Z,9.48
2022-09-18T22:20:57.157Z,9.51
2022-09-18T22:23:23.637Z,9.51
2022-09-18T22:25:50.037Z,9.51
2022-09-18T22:28:16.508Z,9.58
2022-09-18T22:30:42.907Z,9.60
2022-09-18T22:33:09.348Z,9.62
2022-09-18T22:35:35.980Z,9.63
2022-09-18T22:38:02.454Z,9.60
2022-09-18T22:40:28.945Z,9.64
2022-09-18T22:42:55.940Z,9.63
2022-09-18T22:45:22.427Z,9.66
2022-09-18T22:47:48.842Z,9.66
2022-09-18T22:50:15.334Z,9.65
2022-09-18T22:52:42.071Z,9.63
2022-09-18T22:55:08.666Z,9.60
2022-09-18T22:57:35.402Z,9.60
2022-09-18T23:00:02.024Z,9.59
2022-09-18T23:02:28.512Z,9.56
2022-09-18T23:04:55.093Z,9.50
2022-09-18T23:07:21.645Z,9.47
2022-09-18T23:09:48.208Z,9.49
2022-09-18T23:12:14.750Z,9.52
2022-09-18T23:14:41.362Z,9.57
2022-09-18T23:17:08.414Z,9.54
2022-09-18T23:19:35.148Z,9.51
2022-09-18T23:22:02.134Z,9.51
2022-09-18T23:24:28.867Z,9.56
2022-09-18T23:26:57.597Z,9.58
2022-09-18T23:29:25.606Z,9.58
2022-09-18T23:31:53.770Z,9.59
2022-09-18T23:34:23.069Z,9.60
2022-09-18T23:36:52.281Z,9.59
2022-09-18T23:39:30.339Z,9.57
2022-09-18T23:41:58.847Z,9.54
2022-09-18T23:44:28.438Z,9.51
2022-09-18T23:46:55.193Z,9.49
2022-09-18T23:49:23.050Z,9.49
2022-09-18T23:51:51.693Z,9.45
2022-09-18T23:54:27.148Z,9.47
2022-09-18T23:56:54.420Z,9.53
2022-09-18T23:59:23.437Z,9.57
